Dimitrovgrad, Russia
Current Conditions -  °F | °C
As of 4:00 PM on Thursday 30 Oct 2014 (Local Time) from UWLW Reporting Station
Few Clouds Few Clouds  
Wind Chill: 43°   Ceiling: Unl
Heat Index: 46°   Visibility: 5mi
Dew Point: 37°   Wind: 7mph
Humidity: 71%   Direction: 160°SSE
Pressure: 30.21"   Gusts: NA
Location:  54.25°N, 49.55°E
Report Text: UWLW 301300Z 16003MPS 8000 FEW100 08/03 Q1023 20CLRD60 NOSIGRMK QFE762
Loading
Personal Weather Stations






























Interactive Weather Map
Tropical Storm Tracking
New forecast layout! Learn more

10-Day Weather Forecast

Advertisements
Track Severe Weather on mobile